createdAt,value
2022-07-27T00:01:00.564Z,99.90
2022-07-27T00:03:27.916Z,1.00
2022-07-27T00:05:55.251Z,1.00
2022-07-27T00:08:24.091Z,19.80
2022-07-27T00:10:52.373Z,1.00
2022-07-27T00:13:19.868Z,1.00
2022-07-27T00:15:47.318Z,1.00
2022-07-27T00:18:14.835Z,1.00
2022-07-27T00:20:42.420Z,99.90
2022-07-27T00:23:10.112Z,99.90
2022-07-27T00:25:40.023Z,1.00
2022-07-27T00:28:11.567Z,1.00
2022-07-27T00:30:41.352Z,1.00
2022-07-27T00:33:08.721Z,1.00
2022-07-27T00:35:36.052Z,1.00
2022-07-27T00:38:04.270Z,99.90
2022-07-27T00:40:31.767Z,99.90
2022-07-27T00:42:59.429Z,99.90
2022-07-27T00:45:26.696Z,99.90
2022-07-27T00:47:55.265Z,99.90
2022-07-27T00:50:23.349Z,99.90
2022-07-27T00:52:51.200Z,99.90
2022-07-27T00:55:18.548Z,99.90
2022-07-27T00:57:58.207Z,99.90
2022-07-27T01:00:27.763Z,1.00
2022-07-27T01:02:57.461Z,99.90
2022-07-27T01:05:26.548Z,1.00
2022-07-27T01:08:05.521Z,1.00
2022-07-27T01:10:32.958Z,99.90
2022-07-27T01:13:00.242Z,1.00
2022-07-27T01:15:27.681Z,1.00
2022-07-27T01:17:55.101Z,1.00
2022-07-27T01:20:22.472Z,1.00
2022-07-27T01:22:49.983Z,1.00
2022-07-27T01:25:20.226Z,1.00
2022-07-27T01:27:47.532Z,1.00
2022-07-27T01:30:27.034Z,1.00
2022-07-27T01:33:02.489Z,1.00
2022-07-27T01:35:30.254Z,1.00
2022-07-27T01:37:58.375Z,1.00
2022-07-27T01:40:25.904Z,1.00
2022-07-27T01:42:54.480Z,1.00
2022-07-27T01:45:21.975Z,1.00
2022-07-27T01:47:49.448Z,1.00
2022-07-27T01:50:16.972Z,1.00
2022-07-27T01:52:44.297Z,1.00
2022-07-27T01:55:11.793Z,1.00
2022-07-27T01:57:39.484Z,1.00
2022-07-27T02:00:13.595Z,1.00
2022-07-27T02:02:41.541Z,1.00
2022-07-27T02:05:13.023Z,1.00
2022-07-27T02:07:41.497Z,1.00
2022-07-27T02:10:10.226Z,1.00
2022-07-27T02:12:38.374Z,1.00
2022-07-27T02:15:22.734Z,1.00
2022-07-27T02:17:54.178Z,1.00
2022-07-27T02:20:24.784Z,1.00
2022-07-27T02:22:52.240Z,1.00
2022-07-27T02:25:25.137Z,1.00
2022-07-27T02:27:52.476Z,1.00
2022-07-27T02:30:19.853Z,1.00
2022-07-27T02:32:47.458Z,1.00
2022-07-27T02:35:18.690Z,1.00
2022-07-27T02:37:47.257Z,1.00
2022-07-27T02:40:17.279Z,1.00
2022-07-27T02:42:45.853Z,1.00
2022-07-27T02:45:14.637Z,1.00
2022-07-27T02:47:42.697Z,1.00
2022-07-27T02:50:10.781Z,1.00
2022-07-27T02:52:38.223Z,1.00
2022-07-27T02:55:06.347Z,1.00
2022-07-27T02:57:35.984Z,1.00
2022-07-27T03:00:06.082Z,1.00
2022-07-27T03:02:34.621Z,1.00
2022-07-27T03:05:01.916Z,1.00
2022-07-27T03:07:29.662Z,1.00
2022-07-27T03:09:56.966Z,1.00
2022-07-27T03:12:24.258Z,1.00
2022-07-27T03:14:51.740Z,1.00
2022-07-27T03:17:19.165Z,1.00
2022-07-27T03:19:46.507Z,1.00
2022-07-27T03:22:13.813Z,1.00
2022-07-27T03:24:41.137Z,1.00
2022-07-27T03:27:08.427Z,1.00
2022-07-27T03:29:35.717Z,1.00
2022-07-27T03:32:03.162Z,1.00
2022-07-27T03:34:30.511Z,1.00
2022-07-27T03:36:57.906Z,1.00
2022-07-27T03:39:25.252Z,1.00
2022-07-27T03:41:52.876Z,1.00
2022-07-27T03:44:20.144Z,1.00
2022-07-27T03:46:47.626Z,1.00
2022-07-27T03:49:15.492Z,1.00
2022-07-27T03:51:43.055Z,1.00
2022-07-27T03:54:10.610Z,1.00
2022-07-27T03:56:37.917Z,1.00
2022-07-27T03:59:05.482Z,1.00
2022-07-27T04:01:32.879Z,1.00
2022-07-27T04:04:00.351Z,1.00
2022-07-27T04:06:28.473Z,1.00
2022-07-27T04:08:59.556Z,1.00
2022-07-27T04:11:43.762Z,1.00
2022-07-27T04:14:18.790Z,1.00
2022-07-27T04:16:47.043Z,1.00
2022-07-27T04:19:14.838Z,1.00
2022-07-27T04:21:42.408Z,1.00
2022-07-27T04:24:09.860Z,1.00
2022-07-27T04:26:37.246Z,1.00
2022-07-27T04:29:04.678Z,1.00
2022-07-27T04:31:32.083Z,1.00
2022-07-27T04:33:59.389Z,1.00
2022-07-27T04:36:26.712Z,1.00
2022-07-27T04:38:53.992Z,1.00
2022-07-27T04:41:21.306Z,1.00
2022-07-27T04:43:48.649Z,1.00
2022-07-27T04:46:16.408Z,1.00
2022-07-27T04:48:49.116Z,1.00
2022-07-27T04:51:17.703Z,1.00
2022-07-27T04:53:58.071Z,1.00
2022-07-27T04:56:29.091Z,1.00
2022-07-27T04:58:56.388Z,1.00
2022-07-27T05:01:25.497Z,1.00
2022-07-27T05:03:53.151Z,1.00
2022-07-27T05:06:20.550Z,1.00
2022-07-27T05:08:47.939Z,1.00
2022-07-27T05:11:18.328Z,1.00
2022-07-27T05:13:45.656Z,1.00
2022-07-27T05:16:13.030Z,1.00
2022-07-27T05:18:40.701Z,1.00
2022-07-27T05:21:09.599Z,1.00
2022-07-27T05:23:36.921Z,1.00
2022-07-27T05:26:04.499Z,1.00
2022-07-27T05:28:31.865Z,1.00
2022-07-27T05:30:59.363Z,1.00
2022-07-27T05:33:26.933Z,1.00
2022-07-27T05:35:56.426Z,1.00
2022-07-27T05:38:23.766Z,1.00
2022-07-27T05:40:53.146Z,1.00
2022-07-27T05:43:20.516Z,1.00
2022-07-27T05:45:48.085Z,1.00
2022-07-27T05:48:15.476Z,1.00
2022-07-27T05:50:43.803Z,1.00
2022-07-27T05:53:14.135Z,1.00
2022-07-27T05:55:58.690Z,99.90
2022-07-27T05:58:30.057Z,99.90
2022-07-27T06:00:57.664Z,99.90
2022-07-27T06:03:25.946Z,99.90
2022-07-27T06:06:13.485Z,1.00
2022-07-27T06:08:40.894Z,99.90
2022-07-27T06:11:08.361Z,45.30
2022-07-27T06:13:36.726Z,1.00
2022-07-27T06:16:04.534Z,99.90
2022-07-27T06:18:31.914Z,1.00
2022-07-27T06:21:01.654Z,99.90
2022-07-27T06:23:29.672Z,99.90
2022-07-27T06:25:57.401Z,1.00
2022-07-27T06:28:24.790Z,99.90
2022-07-27T06:30:54.503Z,99.90
2022-07-27T06:33:29.123Z,16.70
2022-07-27T06:35:58.195Z,1.00
2022-07-27T06:38:27.032Z,99.90
2022-07-27T06:40:55.168Z,99.90
2022-07-27T06:43:27.422Z,99.90
2022-07-27T06:45:55.394Z,99.90
2022-07-27T06:48:22.855Z,1.00
2022-07-27T06:50:51.322Z,1.00
2022-07-27T06:53:21.398Z,1.00
2022-07-27T06:55:49.611Z,1.00
2022-07-27T06:58:17.393Z,1.00
2022-07-27T07:00:45.456Z,99.90
2022-07-27T07:03:14.988Z,99.90
2022-07-27T07:05:45.350Z,99.90
2022-07-27T07:08:14.414Z,99.90
2022-07-27T07:10:43.868Z,1.00
2022-07-27T07:13:12.341Z,99.90
2022-07-27T07:15:40.971Z,1.00
2022-07-27T07:18:09.006Z,1.00
2022-07-27T07:20:37.841Z,1.00
2022-07-27T07:23:06.529Z,1.00
2022-07-27T07:25:35.020Z,29.00
2022-07-27T07:28:02.932Z,1.00
2022-07-27T07:30:31.783Z,99.90
2022-07-27T07:33:02.536Z,1.00
2022-07-27T07:35:29.909Z,99.90
2022-07-27T07:37:57.240Z,99.90
2022-07-27T07:40:42.767Z,1.00
2022-07-27T07:43:12.689Z,1.00
2022-07-27T07:45:50.498Z,1.00
2022-07-27T07:48:23.450Z,99.90
2022-07-27T07:50:53.242Z,99.90
2022-07-27T07:53:22.844Z,99.90
2022-07-27T07:55:51.746Z,1.00
2022-07-27T07:58:22.090Z,99.90
2022-07-27T08:00:49.662Z,1.00
2022-07-27T08:03:17.322Z,99.90
2022-07-27T08:05:44.766Z,99.90
2022-07-27T08:08:12.121Z,1.00
2022-07-27T08:10:39.905Z,99.90
2022-07-27T08:13:07.326Z,1.00
2022-07-27T08:15:35.782Z,99.90
2022-07-27T08:18:08.732Z,99.90
2022-07-27T08:20:36.350Z,1.00
2022-07-27T08:23:04.999Z,1.00
2022-07-27T08:25:32.700Z,1.00
2022-07-27T08:28:03.478Z,99.90
2022-07-27T08:30:33.012Z,38.40
2022-07-27T08:33:03.339Z,1.00
2022-07-27T08:35:34.105Z,99.90
2022-07-27T08:38:03.310Z,99.90
2022-07-27T08:40:44.359Z,99.90
2022-07-27T08:43:24.762Z,1.00
2022-07-27T08:45:55.256Z,1.00
2022-07-27T08:48:24.906Z,1.00
2022-07-27T08:50:52.754Z,1.00
2022-07-27T08:53:22.082Z,1.00
2022-07-27T08:55:49.630Z,99.90
2022-07-27T08:58:17.547Z,99.90
2022-07-27T09:00:48.291Z,99.90
2022-07-27T09:03:20.014Z,1.00
2022-07-27T09:05:51.134Z,1.00
2022-07-27T09:08:24.983Z,1.00
2022-07-27T09:10:55.145Z,99.90
2022-07-27T09:13:29.509Z,20.80
2022-07-27T09:18:48.392Z,1.00
2022-07-27T09:21:22.873Z,1.00
2022-07-27T09:23:52.950Z,1.00
2022-07-27T09:26:34.246Z,1.00
2022-07-27T09:29:04.918Z,1.00
2022-07-27T09:31:33.583Z,1.00
2022-07-27T09:34:02.980Z,99.90
2022-07-27T09:36:31.203Z,1.00
2022-07-27T09:39:10.100Z,99.90
2022-07-27T09:41:47.754Z,99.90
2022-07-27T09:44:33.170Z,99.90
2022-07-27T09:47:27.640Z,99.90
2022-07-27T09:50:17.237Z,99.90
2022-07-27T09:52:45.295Z,99.90
2022-07-27T09:55:12.826Z,99.90
2022-07-27T09:57:57.773Z,94.90
2022-07-27T10:00:26.655Z,84.50
2022-07-27T10:02:55.095Z,69.40
2022-07-27T10:05:23.682Z,28.40
2022-07-27T10:07:54.416Z,1.00
2022-07-27T10:10:23.557Z,1.00
2022-07-27T10:12:55.184Z,1.00
2022-07-27T10:15:24.757Z,1.00
2022-07-27T10:18:07.367Z,1.00
2022-07-27T10:20:39.673Z,1.00
2022-07-27T10:23:07.741Z,1.00
2022-07-27T10:25:37.996Z,1.00
2022-07-27T10:28:16.445Z,1.00
2022-07-27T10:30:46.225Z,1.00
2022-07-27T10:33:37.779Z,1.00
2022-07-27T10:36:05.448Z,1.00
2022-07-27T10:39:00.534Z,1.00
2022-07-27T10:41:35.448Z,1.00
2022-07-27T10:44:15.381Z,1.00
2022-07-27T10:46:46.707Z,1.00
2022-07-27T10:49:40.786Z,1.00
2022-07-27T10:52:45.407Z,1.00
2022-07-27T10:55:31.203Z,1.00
2022-07-27T10:58:02.580Z,1.00
2022-07-27T11:00:55.082Z,1.00
2022-07-27T11:03:42.387Z,1.00
2022-07-27T11:06:41.925Z,1.00
2022-07-27T11:10:02.256Z,1.00
2022-07-27T11:12:13.781Z,1.00
2022-07-27T11:14:48.787Z,1.00
2022-07-27T11:20:06.981Z,99.90
2022-07-27T11:23:14.091Z,99.90
2022-07-27T11:25:28.790Z,99.90
2022-07-27T11:27:56.141Z,99.90
2022-07-27T11:30:27.938Z,99.90
2022-07-27T11:32:56.170Z,99.90
2022-07-27T11:35:24.192Z,99.90
2022-07-27T11:38:03.642Z,99.90
2022-07-27T11:40:59.961Z,99.90
2022-07-27T11:43:39.072Z,99.90
2022-07-27T11:46:25.187Z,99.90
2022-07-27T11:49:08.027Z,99.90
2022-07-27T11:51:44.760Z,99.90
2022-07-27T11:54:22.446Z,99.90
2022-07-27T11:56:53.828Z,99.90
2022-07-27T11:59:26.414Z,99.90
2022-07-27T12:02:07.497Z,99.90
2022-07-27T12:04:40.004Z,99.90
2022-07-27T12:07:14.078Z,99.90
2022-07-27T12:09:48.583Z,99.90
2022-07-27T12:12:19.792Z,99.90
2022-07-27T12:14:58.910Z,99.90
2022-07-27T12:17:36.661Z,99.90
2022-07-27T12:20:12.827Z,99.90
2022-07-27T12:22:44.621Z,99.90
2022-07-27T12:25:17.690Z,99.90
2022-07-27T12:28:08.863Z,99.90
2022-07-27T12:30:36.198Z,99.90
2022-07-27T12:33:07.141Z,99.90
2022-07-27T12:35:46.822Z,99.90
2022-07-27T12:38:17.156Z,99.90
2022-07-27T12:41:00.551Z,99.90
2022-07-27T12:43:31.685Z,99.90
2022-07-27T12:46:09.806Z,99.90
2022-07-27T12:48:42.339Z,99.90
2022-07-27T12:51:11.252Z,99.90
2022-07-27T12:53:39.069Z,99.90
2022-07-27T12:56:11.242Z,99.90
2022-07-27T12:58:38.648Z,99.90
2022-07-27T13:01:06.152Z,99.90
2022-07-27T13:03:33.617Z,99.90
2022-07-27T13:06:09.262Z,99.90
2022-07-27T13:08:40.932Z,99.90
2022-07-27T13:11:08.570Z,99.90
2022-07-27T13:13:36.067Z,99.90
2022-07-27T13:16:03.503Z,99.90
2022-07-27T13:18:30.903Z,99.90
2022-07-27T13:20:58.444Z,99.90
2022-07-27T13:23:25.839Z,99.90
2022-07-27T13:25:55.959Z,99.90
2022-07-27T13:28:23.256Z,99.90
2022-07-27T13:30:53.373Z,99.90
2022-07-27T13:33:20.747Z,99.90
2022-07-27T13:35:51.749Z,99.90
2022-07-27T13:38:28.581Z,99.90
2022-07-27T13:40:56.270Z,99.90
2022-07-27T13:43:23.772Z,99.90
2022-07-27T13:45:51.145Z,99.90
2022-07-27T13:48:18.691Z,99.90
2022-07-27T13:50:46.097Z,99.90
2022-07-27T13:53:15.760Z,99.90
2022-07-27T13:55:46.563Z,99.90
2022-07-27T13:58:13.925Z,99.90
2022-07-27T14:00:41.569Z,99.90
2022-07-27T14:03:10.226Z,99.90
2022-07-27T14:05:41.897Z,99.90
2022-07-27T14:08:17.381Z,99.90
2022-07-27T14:10:44.848Z,99.90
2022-07-27T14:13:15.393Z,99.90
2022-07-27T14:15:50.528Z,99.90
2022-07-27T14:18:22.223Z,99.90
2022-07-27T14:20:53.095Z,99.90
2022-07-27T14:23:20.952Z,99.90
2022-07-27T14:25:48.341Z,99.90
2022-07-27T14:28:16.239Z,99.90
2022-07-27T14:30:47.101Z,99.90
2022-07-27T14:33:15.534Z,99.90
2022-07-27T14:35:42.905Z,99.90
2022-07-27T14:38:10.810Z,99.90
2022-07-27T14:40:39.263Z,99.90
2022-07-27T14:43:07.800Z,99.90
2022-07-27T14:45:44.652Z,99.90
2022-07-27T14:48:21.435Z,99.90
2022-07-27T14:50:52.623Z,99.90
2022-07-27T14:53:20.104Z,99.90
2022-07-27T14:55:47.585Z,99.90
2022-07-27T14:58:14.953Z,99.90
2022-07-27T15:00:45.327Z,99.90
2022-07-27T15:03:14.672Z,99.90
2022-07-27T15:05:50.302Z,99.90
2022-07-27T15:08:20.013Z,99.90
2022-07-27T15:10:48.700Z,99.90
2022-07-27T15:13:17.153Z,99.90
2022-07-27T15:15:45.244Z,99.90
2022-07-27T15:18:12.713Z,99.90
2022-07-27T15:20:43.152Z,96.80
2022-07-27T15:23:10.483Z,94.10
2022-07-27T15:25:37.779Z,92.90
2022-07-27T15:28:05.427Z,93.90
2022-07-27T15:30:38.636Z,95.00
2022-07-27T15:33:11.500Z,99.90
2022-07-27T15:35:38.827Z,99.90
2022-07-27T15:38:06.153Z,99.90
2022-07-27T15:40:42.661Z,99.90
2022-07-27T15:43:15.247Z,99.90
2022-07-27T15:45:45.698Z,99.90
2022-07-27T15:48:13.597Z,99.90
2022-07-27T15:50:43.828Z,99.90
2022-07-27T15:53:11.410Z,99.90
2022-07-27T15:55:38.907Z,99.90
2022-07-27T15:58:07.486Z,99.90
2022-07-27T16:00:40.944Z,99.90
2022-07-27T16:03:10.634Z,97.00
2022-07-27T16:05:39.222Z,94.70
2022-07-27T16:08:09.714Z,97.10
2022-07-27T16:10:38.791Z,94.40
2022-07-27T16:13:10.891Z,94.90
2022-07-27T16:15:57.449Z,96.40
2022-07-27T16:18:25.552Z,93.40
2022-07-27T16:20:55.955Z,92.00
2022-07-27T16:23:23.660Z,91.50
2022-07-27T16:26:04.495Z,90.50
2022-07-27T16:28:38.824Z,90.50
2022-07-27T16:31:08.511Z,90.00
2022-07-27T16:33:36.258Z,93.60
2022-07-27T16:36:05.320Z,96.40
2022-07-27T16:38:32.922Z,96.50
2022-07-27T16:41:00.461Z,99.40
2022-07-27T16:43:36.372Z,99.90
2022-07-27T16:46:10.009Z,99.90
2022-07-27T16:48:42.537Z,99.90
2022-07-27T16:51:12.277Z,99.90
2022-07-27T16:53:41.528Z,99.90
2022-07-27T16:56:09.280Z,99.90
2022-07-27T16:58:39.570Z,99.90
2022-07-27T17:01:07.440Z,97.00
2022-07-27T17:03:35.138Z,99.70
2022-07-27T17:06:05.947Z,99.90
2022-07-27T17:08:36.915Z,99.10
2022-07-27T17:11:06.058Z,98.70
2022-07-27T17:13:36.011Z,99.50
2022-07-27T17:16:13.463Z,99.90
2022-07-27T17:18:41.079Z,99.90
2022-07-27T17:21:12.485Z,99.90
2022-07-27T17:23:41.957Z,99.90
2022-07-27T17:26:10.438Z,99.90
2022-07-27T17:28:41.432Z,99.90
2022-07-27T17:31:11.073Z,99.90
2022-07-27T17:33:39.823Z,99.90
2022-07-27T17:36:14.086Z,99.90
2022-07-27T17:38:44.629Z,99.90
2022-07-27T17:41:13.405Z,99.90
2022-07-27T17:43:41.331Z,99.90
2022-07-27T17:46:10.219Z,99.90
2022-07-27T17:48:38.289Z,99.90
2022-07-27T17:51:07.028Z,99.90
2022-07-27T17:53:43.482Z,99.90
2022-07-27T17:56:18.256Z,99.90
2022-07-27T17:58:46.311Z,99.90
2022-07-27T18:01:13.905Z,99.90
2022-07-27T18:03:44.250Z,99.90
2022-07-27T18:06:11.602Z,99.90
2022-07-27T18:08:39.338Z,99.90
2022-07-27T18:11:14.641Z,99.90
2022-07-27T18:13:45.560Z,99.90
2022-07-27T18:16:13.930Z,99.90
2022-07-27T18:18:42.422Z,99.90
2022-07-27T18:21:10.977Z,99.90
2022-07-27T18:23:38.684Z,99.90
2022-07-27T18:26:06.404Z,99.90
2022-07-27T18:28:39.391Z,99.90
2022-07-27T18:31:09.515Z,99.90
2022-07-27T18:33:37.863Z,99.90
2022-07-27T18:36:06.296Z,99.90
2022-07-27T18:38:33.893Z,99.90
2022-07-27T18:41:01.248Z,99.90
2022-07-27T18:43:28.590Z,99.90
2022-07-27T18:45:56.215Z,99.90
2022-07-27T18:48:23.588Z,99.90
2022-07-27T18:50:56.182Z,99.90
2022-07-27T18:53:23.577Z,99.90
2022-07-27T18:55:56.030Z,99.90
2022-07-27T18:58:24.542Z,99.90
2022-07-27T19:00:52.296Z,99.90
2022-07-27T19:03:22.309Z,99.90
2022-07-27T19:05:52.944Z,99.90
2022-07-27T19:08:29.906Z,99.90
2022-07-27T19:10:57.413Z,99.90
2022-07-27T19:13:25.149Z,99.90
2022-07-27T19:15:52.476Z,99.90
2022-07-27T19:18:19.911Z,99.90
2022-07-27T19:20:47.253Z,99.90
2022-07-27T19:23:14.641Z,99.90
2022-07-27T19:25:42.011Z,99.90
2022-07-27T19:28:09.379Z,99.90
2022-07-27T19:30:38.913Z,99.90
2022-07-27T19:33:06.354Z,99.90
2022-07-27T19:35:34.340Z,99.90
2022-07-27T19:38:02.233Z,99.90
2022-07-27T19:40:45.900Z,99.90
2022-07-27T19:43:15.240Z,99.90
2022-07-27T19:45:42.993Z,99.90
2022-07-27T19:48:10.555Z,99.90
2022-07-27T19:50:38.010Z,99.90
2022-07-27T19:53:05.424Z,99.90
2022-07-27T19:55:33.105Z,99.90
2022-07-27T19:58:00.935Z,99.90
2022-07-27T20:00:28.296Z,99.90
2022-07-27T20:02:55.655Z,99.90
2022-07-27T20:05:24.372Z,99.90
2022-07-27T20:07:51.712Z,99.90
2022-07-27T20:10:21.568Z,99.90
2022-07-27T20:12:48.977Z,99.90
2022-07-27T20:15:16.332Z,99.90
2022-07-27T20:17:43.693Z,99.90
2022-07-27T20:20:15.619Z,99.90
2022-07-27T20:22:43.038Z,99.90
2022-07-27T20:25:10.703Z,99.90
2022-07-27T20:27:38.687Z,99.90
2022-07-27T20:30:07.410Z,99.90
2022-07-27T20:32:35.241Z,99.90
2022-07-27T20:35:02.913Z,99.90
2022-07-27T20:37:30.307Z,99.90
2022-07-27T20:39:57.640Z,99.90
2022-07-27T20:42:25.249Z,99.90
2022-07-27T20:44:52.958Z,99.90
2022-07-27T20:47:20.441Z,99.90
2022-07-27T20:49:47.933Z,99.90
2022-07-27T20:52:15.478Z,99.90
2022-07-27T20:54:42.921Z,99.90
2022-07-27T20:57:11.411Z,99.90
2022-07-27T20:59:38.815Z,99.90
2022-07-27T21:02:07.640Z,99.90
2022-07-27T21:04:35.470Z,99.90
2022-07-27T21:07:02.806Z,99.90
2022-07-27T21:09:31.570Z,99.90
2022-07-27T21:11:58.984Z,99.90
2022-07-27T21:14:26.302Z,99.90
2022-07-27T21:16:53.666Z,99.90
2022-07-27T21:19:22.534Z,99.90
2022-07-27T21:21:50.022Z,99.90
2022-07-27T21:24:18.646Z,99.90
2022-07-27T21:26:49.069Z,99.90
2022-07-27T21:29:17.085Z,99.90
2022-07-27T21:31:59.011Z,99.90
2022-07-27T21:34:35.248Z,1.00
2022-07-27T21:37:02.568Z,1.00
2022-07-27T21:39:29.995Z,1.00
2022-07-27T21:42:01.747Z,1.00
2022-07-27T21:44:29.990Z,1.00
2022-07-27T21:46:57.330Z,1.00
2022-07-27T21:49:34.229Z,1.00
2022-07-27T21:52:02.049Z,1.00
2022-07-27T21:54:32.408Z,1.00
2022-07-27T21:56:59.732Z,1.00
2022-07-27T21:59:36.339Z,1.00
2022-07-27T22:02:15.483Z,1.00
2022-07-27T22:04:42.829Z,1.00
2022-07-27T22:07:19.027Z,1.00
2022-07-27T22:09:46.785Z,1.00
2022-07-27T22:12:14.128Z,1.00
2022-07-27T22:14:41.426Z,1.00
2022-07-27T22:17:08.898Z,1.00
2022-07-27T22:19:36.176Z,1.00
2022-07-27T22:22:03.862Z,1.00
2022-07-27T22:24:31.174Z,1.00
2022-07-27T22:26:58.492Z,1.00
2022-07-27T22:29:25.866Z,1.00
2022-07-27T22:31:53.294Z,1.00
2022-07-27T22:34:20.698Z,1.00
2022-07-27T22:36:48.027Z,1.00
2022-07-27T22:39:15.311Z,1.00
2022-07-27T22:41:42.728Z,1.00
2022-07-27T22:44:10.139Z,1.00
2022-07-27T22:46:37.966Z,1.00
2022-07-27T22:49:05.406Z,38.40
2022-07-27T22:51:48.701Z,99.90
2022-07-27T22:54:18.040Z,99.90
2022-07-27T22:56:45.929Z,1.00
2022-07-27T22:59:13.585Z,1.00
2022-07-27T23:01:47.157Z,99.90
2022-07-27T23:04:16.624Z,99.90
2022-07-27T23:16:42.548Z,1.00
2022-07-27T23:20:25.842Z,1.00
2022-07-27T23:27:10.418Z,99.90
2022-07-27T23:30:24.013Z,99.90
2022-07-27T23:33:23.632Z,25.40
2022-07-27T23:36:12.959Z,1.00
2022-07-27T23:42:30.041Z,1.00
2022-07-27T23:45:25.505Z,99.90
2022-07-27T23:49:01.588Z,1.00
2022-07-27T23:53:28.901Z,1.00
2022-07-27T23:59:57.037Z,49.70
